Time;durP1;ratioP1;P1;durP2;ratioP2;P2;SDS_P1;SDS_P2;PMS_P1;PMS_P2;Temp;Humidity;BMP_temperature;BMP_pressure;BME280_temperature;BME280_humidity;BME280_pressure;Samples;Min_cycle;Max_cycle;Signal;HPM_P1;HPM_P2
2021/11/01 00:00:53;;;;;;;7.10;3.80;;;15.30;99.90;;;;;;5067344;28;20387;-57
2021/11/01 00:03:19;;;;;;;7.13;3.70;;;15.30;99.90;;;;;;5052259;28;20397;-58
2021/11/01 00:05:46;;;;;;;7.90;3.70;;;15.10;99.90;;;;;;5050938;28;20386;-57
2021/11/01 00:08:12;;;;;;;7.07;3.58;;;15.10;99.90;;;;;;5052201;28;20403;-57
2021/11/01 00:10:38;;;;;;;9.10;3.90;;;15.20;99.90;;;;;;5061538;28;20408;-57
2021/11/01 00:13:04;;;;;;;7.75;3.90;;;15.20;99.90;;;;;;5060575;28;20503;-57
2021/11/01 00:15:30;;;;;;;7.55;4.18;;;15.20;99.90;;;;;;5067049;28;20516;-56
2021/11/01 00:17:56;;;;;;;8.10;4.30;;;15.10;99.90;;;;;;5067985;28;20383;-58
2021/11/01 00:20:23;;;;;;;8.43;4.10;;;15.00;99.90;;;;;;5070719;28;20404;-57
2021/11/01 00:22:50;;;;;;;9.13;3.67;;;15.00;99.90;;;;;;5070634;28;20857;-57
2021/11/01 00:25:15;;;;;;;6.70;3.20;;;14.90;99.90;;;;;;5069659;28;20376;-58
2021/11/01 00:27:41;;;;;;;8.00;3.37;;;15.00;99.90;;;;;;5070577;28;20380;-57
2021/11/01 00:30:09;;;;;;;7.50;3.50;;;14.90;99.90;;;;;;5062965;28;20469;-57
2021/11/01 00:32:35;;;;;;;6.90;3.50;;;15.00;99.90;;;;;;5050529;28;20398;-57
2021/11/01 00:35:02;;;;;;;6.93;3.35;;;15.00;99.90;;;;;;5053655;28;20772;-57
2021/11/01 00:37:28;;;;;;;6.72;3.45;;;15.10;99.90;;;;;;5065832;28;20441;-57
2021/11/01 00:39:58;;;;;;;8.13;3.43;;;15.20;99.90;;;;;;5068162;28;20411;-62
2021/11/01 00:42:24;;;;;;;6.85;3.35;;;15.20;99.90;;;;;;5070486;28;20387;-58
2021/11/01 00:44:50;;;;;;;6.63;3.13;;;15.20;99.90;;;;;;5059433;28;20992;-58
2021/11/01 00:47:16;;;;;;;6.47;2.90;;;15.10;99.90;;;;;;5048652;28;20398;-58
2021/11/01 00:49:43;;;;;;;6.85;3.40;;;15.10;99.90;;;;;;5050417;28;20761;-57
2021/11/01 00:52:09;;;;;;;6.43;2.90;;;15.20;99.90;;;;;;5049460;28;20376;-57
2021/11/01 00:54:35;;;;;;;5.93;2.70;;;15.30;99.90;;;;;;5050209;28;20393;-57
2021/11/01 00:57:02;;;;;;;5.90;2.85;;;15.20;99.90;;;;;;5049400;28;20448;-57
2021/11/01 00:59:28;;;;;;;7.03;2.85;;;15.30;99.90;;;;;;5050031;28;20884;-57
2021/11/01 01:01:53;;;;;;;5.20;2.30;;;15.20;99.90;;;;;;5050040;28;20432;-61
2021/11/01 01:04:19;;;;;;;5.33;2.20;;;15.20;99.90;;;;;;5048652;28;20911;-58
2021/11/01 01:06:45;;;;;;;5.20;2.30;;;15.20;99.90;;;;;;5049926;28;20388;-57
2021/11/01 01:09:11;;;;;;;7.20;2.10;;;15.30;99.90;;;;;;5049244;28;20410;-57
2021/11/01 01:11:37;;;;;;;5.30;1.77;;;15.40;99.90;;;;;;5050382;28;20402;-57
2021/11/01 01:14:04;;;;;;;6.72;1.60;;;15.50;99.90;;;;;;5048698;28;20460;-57
2021/11/01 01:16:32;;;;;;;5.05;1.60;;;15.60;99.90;;;;;;5050023;28;20424;-57
2021/11/01 01:18:59;;;;;;;5.38;1.80;;;15.60;99.90;;;;;;5049151;28;20428;-58
2021/11/01 01:24:11;;;;;;;4.90;1.70;;;15.50;99.90;;;;;;5048809;28;20464;-57
2021/11/01 01:26:38;;;;;;;5.68;1.70;;;15.60;99.90;;;;;;5050127;28;20385;-57
2021/11/01 01:29:06;;;;;;;5.73;1.90;;;15.60;99.90;;;;;;5049101;28;20472;-57
2021/11/01 01:31:32;;;;;;;4.80;2.00;;;15.60;99.90;;;;;;5049757;28;20385;-57
2021/11/01 01:33:57;;;;;;;5.80;2.10;;;16.30;99.90;;;;;;5047534;28;20761;-58
2021/11/01 01:36:23;;;;;;;6.20;2.15;;;15.50;99.90;;;;;;5049867;28;20385;-57
2021/11/01 01:38:50;;;;;;;5.55;1.95;;;15.50;99.90;;;;;;5042402;28;20492;-59
2021/11/01 01:41:21;;;;;;;6.10;2.00;;;15.10;99.90;;;;;;5028794;28;20548;-57
2021/11/01 01:43:52;;;;;;;8.30;1.52;;;14.60;99.90;;;;;;5029606;28;20391;-57
2021/11/01 01:46:20;;;;;;;5.50;1.60;;;14.40;99.90;;;;;;5029102;28;20379;-57
2021/11/01 01:48:46;;;;;;;6.22;1.88;;;14.30;99.90;;;;;;5029297;28;20391;-57
2021/11/01 01:51:13;;;;;;;5.20;1.40;;;14.30;99.90;;;;;;5044039;28;20395;-58
2021/11/01 01:53:39;;;;;;;4.53;1.40;;;14.20;99.90;;;;;;5029434;28;20870;-57
2021/11/01 01:56:05;;;;;;;7.68;1.50;;;14.10;99.90;;;;;;5028535;28;20462;-57
2021/11/01 01:58:34;;;;;;;4.47;1.30;;;13.90;99.90;;;;;;5044586;28;20544;-58
2021/11/01 02:01:09;;;;;;;4.20;1.10;;;13.80;99.90;;;;;;5028494;28;20394;-57
2021/11/01 02:03:38;;;;;;;6.53;1.48;;;13.70;99.90;;;;;;5029404;28;20376;-57
2021/11/01 02:06:27;;;;;;;6.00;1.13;;;13.70;99.90;;;;;;5028553;28;20387;-57
2021/11/01 02:09:00;;;;;;;5.30;1.10;;;13.70;99.90;;;;;;5029225;28;20410;-57
2021/11/01 02:11:56;;;;;;;4.60;1.13;;;13.60;99.90;;;;;;5029371;28;20443;-57
2021/11/01 02:14:29;;;;;;;4.93;1.30;;;13.50;99.90;;;;;;5027589;28;20399;-57
2021/11/01 02:16:55;;;;;;;5.43;1.48;;;13.30;99.90;;;;;;5028974;28;20383;-62
2021/11/01 02:19:28;;;;;;;4.40;1.00;;;13.30;99.90;;;;;;5028683;28;20417;-58
2021/11/01 02:22:01;;;;;;;4.75;0.90;;;13.30;99.90;;;;;;5037871;28;20401;-61
2021/11/01 02:25:02;;;;;;;7.68;1.20;;;13.20;99.90;;;;;;5030033;28;20387;-57
2021/11/01 02:27:32;;;;;;;4.38;0.90;;;13.20;99.90;;;;;;5032761;28;20402;-57
2021/11/01 02:29:59;;;;;;;4.65;0.80;;;13.20;99.90;;;;;;5041630;28;20513;-62
2021/11/01 02:32:26;;;;;;;4.97;1.00;;;13.20;99.90;;;;;;5052976;28;20416;-57
2021/11/01 02:34:53;;;;;;;8.02;1.20;;;13.10;99.90;;;;;;5051886;28;20455;-57
2021/11/01 02:37:19;;;;;;;5.10;1.10;;;13.20;99.90;;;;;;5052143;28;20495;-57
2021/11/01 02:39:47;;;;;;;6.25;1.30;;;13.20;99.90;;;;;;5052886;28;20979;-57
2021/11/01 02:42:15;;;;;;;4.53;1.00;;;13.00;99.90;;;;;;5051951;28;20443;-57
2021/11/01 02:45:12;;;;;;;6.20;1.50;;;12.90;99.90;;;;;;5052687;28;20396;-57
2021/11/01 02:47:37;;;;;;;5.40;0.80;;;12.70;99.90;;;;;;5048175;28;20432;-57
2021/11/01 02:50:08;;;;;;;4.83;1.13;;;12.60;99.90;;;;;;5051965;28;20864;-57
2021/11/01 02:52:34;;;;;;;5.60;1.00;;;12.60;99.90;;;;;;5052674;28;20920;-57
2021/11/01 02:55:02;;;;;;;6.63;1.10;;;12.50;99.90;;;;;;5052051;28;20373;-57
2021/11/01 02:57:27;;;;;;;4.70;0.88;;;12.60;99.90;;;;;;5052544;28;20385;-57
2021/11/01 02:59:53;;;;;;;5.00;0.90;;;12.50;99.90;;;;;;5052400;28;20412;-57
2021/11/01 03:02:19;;;;;;;6.93;0.98;;;13.40;99.90;;;;;;5051815;28;20435;-57
2021/11/01 03:04:45;;;;;;;4.30;0.80;;;12.30;99.90;;;;;;5052464;28;20382;-58
2021/11/01 03:07:12;;;;;;;6.07;1.10;;;12.30;99.90;;;;;;5051964;28;20400;-57
2021/11/01 03:09:41;;;;;;;5.00;1.00;;;12.30;99.90;;;;;;5052093;28;20412;-57
2021/11/01 03:12:09;;;;;;;4.53;1.05;;;12.20;99.90;;;;;;5048242;28;20404;-57
2021/11/01 03:14:43;;;;;;;5.00;1.02;;;12.10;99.90;;;;;;5043250;28;20962;-57
2021/11/01 03:17:13;;;;;;;7.15;1.10;;;12.20;99.90;;;;;;5064231;28;20470;-57
2021/11/01 03:19:43;;;;;;;4.60;0.82;;;12.10;99.90;;;;;;5045932;28;20412;-57
2021/11/01 03:22:10;;;;;;;6.45;1.08;;;12.10;99.90;;;;;;5051563;28;20386;-57
2021/11/01 03:24:40;;;;;;;14.68;1.30;;;12.00;99.90;;;;;;5051980;28;20381;-57
2021/11/01 03:27:07;;;;;;;6.60;1.40;;;12.00;99.90;;;;;;5051530;28;20417;-58
2021/11/01 03:29:34;;;;;;;7.63;1.50;;;11.90;99.90;;;;;;5050462;28;20879;-57
2021/11/01 03:32:04;;;;;;;5.85;1.13;;;11.80;99.90;;;;;;5051117;28;20366;-59
2021/11/01 03:34:31;;;;;;;5.30;1.20;;;11.60;99.90;;;;;;5051806;28;20434;-59
2021/11/01 03:37:03;;;;;;;5.50;1.00;;;11.60;99.90;;;;;;5050680;28;20458;-63
2021/11/01 03:39:29;;;;;;;5.45;1.50;;;11.50;99.90;;;;;;5051359;28;20417;-58
2021/11/01 03:41:55;;;;;;;5.63;1.15;;;11.50;99.90;;;;;;5051301;28;20933;-63
2021/11/01 03:44:29;;;;;;;6.10;1.20;;;11.50;99.90;;;;;;5050302;28;20381;-59
2021/11/01 03:46:57;;;;;;;6.80;1.40;;;11.40;99.90;;;;;;5051095;28;20892;-62
2021/11/01 03:49:28;;;;;;;6.22;1.15;;;11.40;99.90;;;;;;5051686;28;20909;-59
2021/11/01 03:54:51;;;;;;;6.10;1.60;;;11.50;99.90;;;;;;5050458;28;20443;-59
2021/11/01 03:57:18;;;;;;;5.82;1.10;;;11.60;99.90;;;;;;5051115;28;20723;-59
2021/11/01 03:59:44;;;;;;;5.72;1.20;;;11.60;99.90;;;;;;5051494;28;20413;-58
2021/11/01 04:02:13;;;;;;;7.38;2.08;;;11.60;99.90;;;;;;5050584;28;20393;-58
2021/11/01 04:04:42;;;;;;;5.75;1.08;;;11.70;99.90;;;;;;5051301;28;20397;-59
2021/11/01 04:07:08;;;;;;;5.78;1.00;;;11.60;99.90;;;;;;5045866;28;20425;-58
2021/11/01 04:09:33;;;;;;;6.50;1.20;;;11.60;99.90;;;;;;5041129;28;20422;-59
2021/11/01 04:11:59;;;;;;;5.47;1.00;;;11.70;99.90;;;;;;5042307;28;20408;-63
2021/11/01 04:14:27;;;;;;;6.88;1.60;;;11.70;99.90;;;;;;5047462;28;21017;-58
2021/11/01 04:16:59;;;;;;;8.52;1.30;;;11.80;99.90;;;;;;5050443;28;20381;-60
2021/11/01 04:21:52;;;;;;;5.70;1.20;;;11.60;99.90;;;;;;5049746;28;20389;-58
2021/11/01 04:24:20;;;;;;;6.07;1.20;;;11.70;99.90;;;;;;5049817;28;21032;-59
2021/11/01 04:26:46;;;;;;;8.60;1.50;;;11.70;99.90;;;;;;5050715;28;20460;-58
2021/11/01 04:29:13;;;;;;;6.25;1.17;;;11.80;99.90;;;;;;5049903;28;20393;-59
2021/11/01 04:31:43;;;;;;;8.25;1.40;;;11.90;99.90;;;;;;5050552;28;20470;-60
2021/11/01 04:36:38;;;;;;;5.80;1.03;;;11.90;99.90;;;;;;5050342;28;20393;-58
2021/11/01 04:39:34;;;;;;;7.30;1.20;;;11.80;99.90;;;;;;5049107;28;20413;-59
2021/11/01 04:55:01;;;;;;;5.60;1.50;;;11.60;99.90;;;;;;5049686;28;20520;-62
2021/11/01 04:57:27;;;;;;;7.00;1.10;;;11.60;99.90;;;;;;5050520;28;20378;-59
2021/11/01 04:59:53;;;;;;;5.90;1.20;;;11.80;99.90;;;;;;5050194;28;20409;-58
2021/11/01 05:02:20;;;;;;;5.38;1.20;;;11.70;99.90;;;;;;5049492;28;20389;-59
2021/11/01 05:04:48;;;;;;;6.83;1.50;;;11.80;99.90;;;;;;5050099;28;20535;-59
2021/11/01 05:07:14;;;;;;;7.63;1.50;;;11.80;99.90;;;;;;5049069;28;20733;-59
2021/11/01 05:09:46;;;;;;;6.00;1.20;;;12.00;99.90;;;;;;5049878;28;20396;-59
2021/11/01 05:12:35;;;;;;;6.00;1.60;;;11.90;99.90;;;;;;5049623;28;20425;-59
2021/11/01 05:15:15;;;;;;;6.80;1.73;;;12.00;99.90;;;;;;5049445;28;20910;-62
2021/11/01 05:20:38;;;;;;;6.95;1.35;;;12.00;99.90;;;;;;5049035;28;20500;-59
2021/11/01 05:28:11;;;;;;;6.82;1.27;;;12.00;99.90;;;;;;5049102;28;20377;-59
2021/11/01 05:33:30;;;;;;;6.57;2.00;;;12.00;99.90;;;;;;5048865;28;20813;-59
2021/11/01 05:35:51;;;;;;;5.10;1.50;;;11.90;99.90;;;;;;5049347;28;20392;-60
2021/11/01 05:38:17;;;;;;;9.27;2.97;;;11.80;99.90;;;;;;5048999;28;20404;-60
2021/11/01 05:40:43;;;;;;;5.57;1.90;;;11.80;99.90;;;;;;5049147;28;20417;-60
2021/11/01 05:43:08;;;;;;;6.75;2.00;;;11.90;99.90;;;;;;5047572;28;20397;-60
2021/11/01 05:45:34;;;;;;;5.23;1.80;;;11.80;99.90;;;;;;5049162;28;20377;-60
2021/11/01 05:48:03;;;;;;;4.70;1.52;;;11.80;99.90;;;;;;5049137;28;20771;-63
2021/11/01 05:50:31;;;;;;;6.60;1.80;;;11.80;99.90;;;;;;5049653;28;20520;-59
2021/11/01 05:52:59;;;;;;;8.38;1.85;;;11.80;99.90;;;;;;5049409;28;20464;-59
2021/11/01 06:06:03;;;;;;;5.93;1.80;;;11.90;99.90;;;;;;5049270;28;20411;-59
2021/11/01 06:14:08;;;;;;;6.85;1.70;;;11.80;99.90;;;;;;5048427;28;20867;-59
2021/11/01 06:16:33;;;;;;;6.53;1.63;;;11.70;99.90;;;;;;5048975;28;20378;-59
2021/11/01 06:18:59;;;;;;;6.45;1.48;;;11.60;99.90;;;;;;5048656;28;20401;-62
2021/11/01 06:21:25;;;;;;;5.13;1.50;;;11.60;99.90;;;;;;5049150;28;20447;-58
2021/11/01 06:23:56;;;;;;;4.85;1.17;;;11.50;99.90;;;;;;5049107;28;20428;-58
2021/11/01 06:26:23;;;;;;;3.40;0.85;;;11.40;99.90;;;;;;5048563;28;20628;-59
2021/11/01 06:28:54;;;;;;;5.10;1.00;;;11.50;99.90;;;;;;5048990;28;20729;-60
2021/11/01 06:31:28;;;;;;;4.07;1.10;;;11.50;99.90;;;;;;5046857;28;20397;-59
2021/11/01 06:57:35;;;;;;;5.25;0.90;;;11.30;99.90;;;;;;5035841;28;20437;-58
2021/11/01 07:16:43;;;;;;;5.55;0.80;;;11.30;99.90;;;;;;5050486;28;20430;-57
2021/11/01 08:27:45;;;;;;;5.75;1.05;;;11.10;99.90;;;;;;5041819;28;20390;-58
2021/11/01 08:34:10;;;;;;;4.18;1.00;;;11.20;99.90;;;;;;5028920;28;20391;-57
2021/11/01 08:36:08;;;;;;;3.40;0.70;;;11.10;99.90;;;;;;5039874;28;20913;-57
2021/11/01 08:41:18;;;;;;;4.43;1.00;;;11.10;99.90;;;;;;5042220;28;20763;-61
2021/11/01 08:51:58;;;;;;;4.80;1.00;;;11.20;99.90;;;;;;5034767;28;20918;-58
2021/11/01 09:07:53;;;;;;;4.20;1.10;;;11.30;99.90;;;;;;5031174;28;20460;-58
2021/11/01 09:13:06;;;;;;;3.63;1.00;;;11.30;99.90;;;;;;5029500;28;20960;-57
2021/11/01 09:26:54;;;;;;;5.35;1.20;;;11.50;99.90;;;;;;5030116;28;20432;-59
2021/11/01 09:29:26;;;;;;;5.45;1.00;;;11.40;99.90;;;;;;5036866;28;20417;-58
2021/11/01 09:42:54;;;;;;;4.43;0.85;;;11.60;99.90;;;;;;5036777;28;20504;-59
2021/11/01 09:45:24;;;;;;;3.93;1.00;;;11.70;99.90;;;;;;5030771;28;20453;-59
2021/11/01 09:47:51;;;;;;;5.13;1.00;;;11.70;99.90;;;;;;5039243;28;20405;-60
2021/11/01 09:50:20;;;;;;;4.13;0.60;;;11.60;99.90;;;;;;5039651;28;20428;-59
2021/11/01 09:52:55;;;;;;;4.70;0.90;;;11.70;99.90;;;;;;5034853;28;20396;-58
2021/11/01 10:00:34;;;;;;;5.15;1.10;;;11.60;99.90;;;;;;5046042;28;20418;-59
2021/11/01 10:03:01;;;;;;;4.07;1.40;;;11.60;99.90;;;;;;5048739;28;20403;-58
2021/11/01 10:05:27;;;;;;;4.18;0.80;;;11.60;99.90;;;;;;5028289;28;20399;-58
2021/11/01 10:07:52;;;;;;;3.90;0.80;;;11.60;99.90;;;;;;5030638;28;20403;-59
2021/11/01 10:10:19;;;;;;;4.70;0.80;;;11.70;99.90;;;;;;5035645;28;20413;-59
2021/11/01 10:12:48;;;;;;;4.95;0.80;;;11.60;99.90;;;;;;5044695;28;20877;-58
2021/11/01 10:18:09;;;;;;;4.00;0.70;;;11.50;99.90;;;;;;5030849;28;20486;-62
2021/11/01 10:20:40;;;;;;;3.85;0.90;;;11.50;99.90;;;;;;5041169;28;20459;-59
2021/11/01 10:23:24;;;;;;;3.53;0.70;;;11.50;99.90;;;;;;5031252;28;20494;-61
2021/11/01 10:26:06;;;;;;;3.65;0.90;;;11.50;99.90;;;;;;5030460;28;20410;-60
2021/11/01 10:28:32;;;;;;;3.50;0.70;;;11.50;99.90;;;;;;5030268;28;20413;-60
2021/11/01 10:31:19;;;;;;;3.93;0.80;;;11.50;99.90;;;;;;5030386;28;20395;-59
2021/11/01 10:33:46;;;;;;;4.50;1.00;;;11.60;99.90;;;;;;5032946;28;20472;-59
2021/11/01 10:36:37;;;;;;;4.50;0.80;;;11.60;99.90;;;;;;5041551;28;20385;-63
2021/11/01 10:39:11;;;;;;;4.40;0.90;;;11.60;99.90;;;;;;5042068;28;20508;-60
2021/11/01 11:12:22;;;;;;;5.60;0.90;;;11.60;99.90;;;;;;5031689;28;20422;-58
2021/11/01 11:14:51;;;;;;;3.40;0.70;;;11.80;99.90;;;;;;5031721;28;21351;-58
2021/11/01 11:20:47;;;;;;;4.10;0.70;;;11.80;99.90;;;;;;5042964;28;20509;-58
2021/11/01 11:23:38;;;;;;;3.40;0.70;;;11.80;99.90;;;;;;5035974;28;20410;-59
2021/11/01 11:50:41;;;;;;;3.60;0.80;;;12.20;99.90;;;;;;5035435;28;20424;-56
2021/11/01 11:53:15;;;;;;;5.30;1.00;;;12.30;99.90;;;;;;5031866;28;20486;-58
2021/11/01 11:55:43;;;;;;;4.30;1.00;;;12.40;99.90;;;;;;5031344;28;20426;-59
2021/11/01 11:58:12;;;;;;;3.85;0.80;;;12.30;99.90;;;;;;5042532;28;20425;-58
2021/11/01 12:00:39;;;;;;;4.10;0.90;;;12.20;99.90;;;;;;5030632;28;20425;-58
2021/11/01 12:03:14;;;;;;;5.00;1.10;;;12.10;99.90;;;;;;5035808;28;20435;-58
2021/11/01 12:05:49;;;;;;;3.80;0.70;;;12.10;99.90;;;;;;5036478;28;20403;-58
2021/11/01 12:08:42;;;;;;;4.50;0.90;;;12.20;99.90;;;;;;5028341;28;20446;-60
2021/11/01 12:11:18;;;;;;;3.83;1.00;;;12.10;99.90;;;;;;5033097;28;20419;-58
2021/11/01 12:19:17;;;;;;;3.85;0.90;;;12.20;99.90;;;;;;5035842;28;20480;-56
2021/11/01 12:21:45;;;;;;;4.10;1.20;;;12.10;99.90;;;;;;5034046;28;20411;-57
2021/11/01 12:24:18;;;;;;;4.30;1.13;;;12.10;99.90;;;;;;5034691;28;20457;-59
2021/11/01 12:26:44;;;;;;;4.05;0.98;;;12.10;99.90;;;;;;5033247;28;21078;-59
2021/11/01 12:29:11;;;;;;;4.25;0.90;;;12.10;99.90;;;;;;5035275;28;20430;-57
2021/11/01 12:31:37;;;;;;;4.95;0.90;;;13.70;99.90;;;;;;5029705;28;20493;-57
2021/11/01 12:34:18;;;;;;;4.50;1.10;;;12.20;99.90;;;;;;5033503;28;20480;-57
2021/11/01 12:37:00;;;;;;;4.40;1.08;;;12.10;99.90;;;;;;5032997;28;20409;-58
2021/11/01 12:57:48;;;;;;;4.00;1.02;;;12.50;99.90;;;;;;5032653;28;20465;-59
2021/11/01 13:00:14;;;;;;;4.50;0.90;;;12.50;99.90;;;;;;5045771;28;20468;-58
2021/11/01 13:02:46;;;;;;;4.65;1.00;;;12.50;99.90;;;;;;5034775;28;20427;-58
2021/11/01 13:05:21;;;;;;;6.30;1.70;;;12.60;99.90;;;;;;5028992;28;20407;-58
2021/11/01 13:08:01;;;;;;;4.10;1.20;;;12.70;99.90;;;;;;5030166;28;20502;-58
2021/11/01 13:19:08;;;;;;;4.20;1.00;;;12.80;99.90;;;;;;5029339;28;20461;-58
2021/11/01 13:21:48;;;;;;;5.30;1.20;;;12.60;99.90;;;;;;5038146;28;20507;-59
2021/11/01 13:24:15;;;;;;;4.07;1.13;;;12.70;99.90;;;;;;5033167;28;20440;-58
2021/11/01 13:34:44;;;;;;;6.85;1.60;;;12.60;99.90;;;;;;5050032;28;20570;-58
2021/11/01 13:35:42;;;;;;;5.18;1.25;;;12.60;99.90;;;;;;5039828;28;20459;-58
2021/11/01 13:38:06;;;;;;;6.37;1.90;;;12.60;99.90;;;;;;5043445;28;20417;-59
2021/11/01 13:40:45;;;;;;;5.47;1.30;;;12.60;99.90;;;;;;5042210;28;20422;-58
2021/11/01 13:43:11;;;;;;;5.50;1.10;;;12.60;99.90;;;;;;5045261;28;20389;-58
2021/11/01 13:45:38;;;;;;;4.80;1.33;;;12.50;99.90;;;;;;5039343;28;20770;-58
2021/11/01 13:48:04;;;;;;;3.95;1.10;;;12.60;99.90;;;;;;5059893;28;20455;-57
2021/11/01 13:50:39;;;;;;;5.07;1.20;;;12.70;99.90;;;;;;5045684;28;20398;-57
2021/11/01 13:53:12;;;;;;;4.70;1.10;;;12.60;99.90;;;;;;5043003;28;20392;-57
2021/11/01 13:55:57;;;;;;;87.10;37.85;;;12.60;99.90;;;;;;5044662;28;20575;-58
2021/11/01 14:11:00;;;;;;;24.95;15.85;;;12.70;99.90;;;;;;5044624;28;20469;-58
2021/11/01 14:17:00;;;;;;;6.95;2.30;;;12.70;99.90;;;;;;5043321;28;20422;-58
2021/11/01 14:33:38;;;;;;;5.78;2.50;;;12.80;99.90;;;;;;5045672;28;20525;-58
2021/11/01 15:11:05;;;;;;;5.00;1.40;;;12.20;99.90;;;;;;5055694;28;20457;-58
2021/11/01 15:19:25;;;;;;;5.88;1.60;;;12.20;99.90;;;;;;5051039;28;20381;-59
2021/11/01 15:21:33;;;;;;;7.18;2.90;;;12.20;99.90;;;;;;5047882;28;20420;-60
2021/11/01 15:24:25;;;;;;;8.13;4.18;;;12.30;99.90;;;;;;5053733;28;20799;-58
2021/11/01 15:30:58;;;;;;;8.00;3.70;;;12.30;99.90;;;;;;5051544;28;20385;-61
2021/11/01 16:18:37;;;;;;;5.30;1.50;;;11.90;99.90;;;;;;5044311;28;20745;-58
2021/11/01 16:21:03;;;;;;;5.32;1.52;;;11.90;99.90;;;;;;5051073;28;20405;-60
2021/11/01 16:26:00;;;;;;;11.20;5.40;;;11.80;99.90;;;;;;5052605;28;20393;-59
2021/11/01 16:28:29;;;;;;;7.70;2.72;;;11.80;99.90;;;;;;5050978;28;20377;-60
2021/11/01 16:33:42;;;;;;;33.58;19.65;;;11.80;99.90;;;;;;5049706;28;20901;-60
2021/11/01 16:36:11;;;;;;;25.30;15.60;;;11.80;99.90;;;;;;5052950;28;20388;-57
2021/11/01 16:38:50;;;;;;;5.60;2.45;;;11.80;99.90;;;;;;5064422;28;20411;-57
2021/11/01 16:41:18;;;;;;;6.55;2.20;;;11.80;99.90;;;;;;5060501;28;20449;-57
2021/11/01 16:43:44;;;;;;;7.00;1.60;;;11.80;99.90;;;;;;5051936;28;20463;-57
2021/11/01 16:46:10;;;;;;;6.20;2.78;;;11.90;99.90;;;;;;5058428;28;20384;-58
2021/11/01 16:48:37;;;;;;;8.70;4.97;;;11.90;99.90;;;;;;5064889;28;20391;-57
2021/11/01 16:51:04;;;;;;;6.80;2.13;;;11.90;99.90;;;;;;5050866;28;20461;-57
2021/11/01 16:53:32;;;;;;;7.07;1.60;;;11.80;99.90;;;;;;5053499;28;20394;-57
2021/11/01 16:56:14;;;;;;;8.52;1.90;;;11.80;99.90;;;;;;5051861;28;20397;-57
2021/11/01 16:58:44;;;;;;;6.97;1.90;;;11.80;99.90;;;;;;5050924;28;20413;-59
2021/11/01 17:01:15;;;;;;;4.80;1.50;;;11.70;99.90;;;;;;5050364;28;20421;-60
2021/11/01 17:03:45;;;;;;;7.72;2.97;;;11.70;99.90;;;;;;5050692;28;20480;-57
2021/11/01 17:22:26;;;;;;;73.40;51.97;;;11.60;99.90;;;;;;5053689;28;20503;-59
2021/11/01 17:36:38;;;;;;;6.20;2.47;;;11.20;99.90;;;;;;4987220;28;20897;-59
2021/11/01 18:46:09;;;;;;;181.10;70.23;;;10.50;99.90;;;;;;5049063;28;20463;-59
2021/11/01 18:51:08;;;;;;;18.10;9.30;;;10.50;99.90;;;;;;5048954;28;20404;-59
2021/11/01 18:53:57;;;;;;;12.63;5.60;;;10.50;99.90;;;;;;5047832;28;20388;-60
2021/11/01 18:56:34;;;;;;;49.45;24.05;;;10.40;99.90;;;;;;5051926;28;20402;-59
2021/11/01 18:59:03;;;;;;;13.35;6.50;;;10.30;99.90;;;;;;5050830;28;20987;-59
2021/11/01 19:01:32;;;;;;;343.10;88.25;;;10.30;99.90;;;;;;5049361;28;20381;-60
2021/11/01 19:03:59;;;;;;;330.77;79.40;;;10.20;99.90;;;;;;5049380;28;20404;-58
2021/11/01 19:06:39;;;;;;;237.45;62.78;;;10.10;99.90;;;;;;5048256;28;20434;-58
2021/11/01 19:12:38;;;;;;;9.30;3.30;;;10.00;99.90;;;;;;5053142;28;20484;-59
2021/11/01 20:08:33;;;;;;;6.40;2.40;;;8.60;99.90;;;;;;5061604;28;20919;-59
2021/11/01 21:25:18;;;;;;;6.75;3.40;;;7.20;99.90;;;;;;5066815;28;20471;-57
2021/11/01 21:27:47;;;;;;;15.20;7.87;;;6.20;99.90;;;;;;5052769;28;20397;-57
2021/11/01 21:30:12;;;;;;;6.20;2.90;;;7.20;99.90;;;;;;5048178;28;20403;-57
2021/11/01 21:32:40;;;;;;;6.20;2.92;;;7.20;99.90;;;;;;5054643;28;20433;-57
2021/11/01 21:35:15;;;;;;;6.38;2.70;;;7.20;99.90;;;;;;5047013;28;20374;-57
2021/11/01 21:37:42;;;;;;;8.30;2.80;;;7.20;99.90;;;;;;5050118;28;20908;-57
2021/11/01 21:40:11;;;;;;;7.13;3.00;;;7.20;99.90;;;;;;5051123;28;20420;-58
2021/11/01 21:42:36;;;;;;;7.72;3.60;;;7.20;99.90;;;;;;5049375;28;20416;-57
2021/11/01 21:45:03;;;;;;;7.40;3.42;;;7.20;99.90;;;;;;5048901;28;20401;-57
2021/11/01 21:47:29;;;;;;;6.90;3.30;;;7.30;99.90;;;;;;5052310;28;20374;-57
2021/11/01 21:49:56;;;;;;;6.18;3.25;;;7.30;99.90;;;;;;5050741;28;20408;-57
2021/11/01 21:52:22;;;;;;;6.00;2.90;;;7.20;99.90;;;;;;5053624;28;20382;-57
2021/11/01 21:54:54;;;;;;;7.38;3.35;;;7.30;99.90;;;;;;5049926;28;20397;-59
2021/11/01 22:18:42;;;;;;;7.40;2.80;;;7.20;99.90;;;;;;5068867;28;20763;-57
2021/11/01 22:24:03;;;;;;;7.90;3.80;;;7.20;99.90;;;;;;5069085;28;20386;-57
2021/11/01 22:34:38;;;;;;;7.43;4.30;;;7.40;99.90;;;;;;5069143;28;20382;-57
2021/11/01 22:43:35;;;;;;;13.43;6.20;;;7.10;99.90;;;;;;5072024;28;20462;-56
2021/11/01 22:45:23;;;;;;;66.43;34.95;;;7.10;99.90;;;;;;5068228;28;20430;-57
2021/11/01 22:56:25;;;;;;;25.65;11.05;;;7.20;99.90;;;;;;5071669;28;20374;-57
2021/11/01 22:58:52;;;;;;;34.85;17.50;;;7.30;99.90;;;;;;5073185;28;20924;-58
2021/11/01 23:33:35;;;;;;;15.45;7.63;;;8.10;99.90;;;;;;5072025;28;20398;-56
2021/11/01 23:36:01;;;;;;;18.23;9.40;;;8.20;99.90;;;;;;5071123;28;20371;-56
2021/11/01 23:38:28;;;;;;;23.25;10.70;;;8.10;99.90;;;;;;5071858;28;20491;-57
2021/11/01 23:40:53;;;;;;;170.13;65.27;;;8.10;99.90;;;;;;5070850;28;20458;-58
2021/11/01 23:43:19;;;;;;;58.10;23.48;;;8.20;99.90;;;;;;5071840;28;20415;-57
2021/11/01 23:45:46;;;;;;;11.88;5.38;;;8.10;99.90;;;;;;5071651;28;20877;-57
2021/11/01 23:48:13;;;;;;;7.13;3.17;;;8.10;99.90;;;;;;5070771;28;20609;-57
2021/11/01 23:50:41;;;;;;;8.43;3.43;;;8.10;99.90;;;;;;5071509;28;20380;-57
2021/11/01 23:53:17;;;;;;;6.15;3.00;;;8.10;99.90;;;;;;5063199;28;20404;-57
2021/11/01 23:55:43;;;;;;;5.88;2.70;;;8.10;99.90;;;;;;5065001;28;20425;-57
2021/11/01 23:58:10;;;;;;;6.65;2.90;;;8.20;99.90;;;;;;5070770;28;20387;-57
